Time;durP1;ratioP1;P1;durP2;ratioP2;P2;SDS_P1;SDS_P2;PMS_P1;PMS_P2;Temp;Humidity;BMP_temperature;BMP_pressure;BME280_temperature;BME280_humidity;BME280_pressure;Samples;Min_cycle;Max_cycle;Signal;HPM_P1;HPM_P2
2022/06/24 00:00:41;;;;;;;3.92;2.80;;;25.30;66.00;;;-144.05;34.93;125687.94;6186699;23;19997;-84
2022/06/24 00:03:20;;;;;;;4.75;2.60;;;25.20;65.70;;;-144.05;34.79;125687.94;6186416;23;20009;-89
2022/06/24 00:05:56;;;;;;;5.25;3.05;;;25.20;65.10;;;-144.05;34.90;125687.94;6184047;23;20009;-89
2022/06/24 00:08:32;;;;;;;5.03;2.70;;;25.10;66.30;;;-144.05;34.95;125687.94;6183887;23;20009;-86
2022/06/24 00:11:12;;;;;;;9.05;3.70;;;25.10;66.20;;;-144.05;34.91;125687.94;6184338;23;20297;-89
2022/06/24 00:13:41;;;;;;;3.08;2.55;;;25.10;65.50;;;-144.05;34.80;125687.94;6184501;23;20501;-88
2022/06/24 00:16:07;;;;;;;5.45;2.97;;;25.10;65.60;;;-144.05;34.75;125687.94;6183998;23;20001;-86
2022/06/24 00:18:33;;;;;;;3.60;2.80;;;25.00;66.60;;;-144.05;34.93;125687.94;6184197;23;20005;-86
2022/06/24 00:20:59;;;;;;;7.40;3.10;;;25.00;66.30;;;-144.05;34.89;125687.94;6184079;23;20009;-86
2022/06/24 00:23:26;;;;;;;6.45;2.72;;;25.00;66.10;;;-144.05;34.92;125687.94;6184332;23;20041;-88
2022/06/24 00:25:54;;;;;;;3.83;2.53;;;25.00;65.60;;;-144.05;34.98;125687.94;6184495;23;20119;-87
2022/06/24 00:28:26;;;;;;;5.75;4.03;;;25.00;67.20;;;-144.05;34.96;125687.94;6184358;23;20009;-86
2022/06/24 00:30:55;;;;;;;5.32;3.50;;;25.00;65.20;;;-144.05;34.93;125687.94;6184014;23;20029;-86
2022/06/24 00:33:33;;;;;;;5.57;3.30;;;25.00;65.50;;;-144.05;34.71;125687.94;6186013;23;20001;-87
2022/06/24 00:36:00;;;;;;;2.83;2.50;;;25.00;65.60;;;-144.05;34.69;125687.94;6183913;23;20452;-89
2022/06/24 00:38:31;;;;;;;4.40;2.67;;;25.00;65.60;;;-144.05;34.55;125687.94;6183997;23;20066;-88
2022/06/24 00:41:13;;;;;;;5.85;2.75;;;25.00;65.10;;;-144.05;34.64;125687.94;6184075;23;20005;-88
2022/06/24 00:44:03;;;;;;;7.03;2.65;;;24.90;64.70;;;-144.05;35.40;125687.94;6183899;23;20000;-86
2022/06/24 00:46:39;;;;;;;5.88;2.92;;;24.80;66.80;;;-144.05;36.37;125687.94;6183935;23;20036;-88
2022/06/24 00:49:11;;;;;;;6.78;2.85;;;24.60;68.80;;;-144.05;36.60;125687.94;6183479;23;20009;-88
2022/06/24 00:51:38;;;;;;;3.63;2.70;;;24.40;69.70;;;-144.05;36.94;125687.94;6183906;23;20013;-88
2022/06/24 00:54:17;;;;;;;6.15;2.88;;;24.20;70.10;;;-144.05;36.97;125687.94;6184325;23;20376;-89
2022/06/24 00:56:45;;;;;;;3.67;2.70;;;24.20;71.40;;;-144.05;37.28;125687.94;6183536;23;20043;-88
2022/06/24 00:59:11;;;;;;;7.00;2.97;;;24.10;70.80;;;-144.05;37.64;125687.94;6183482;23;20001;-89
2022/06/24 01:01:43;;;;;;;4.20;2.85;;;24.10;71.90;;;-144.05;38.00;125687.94;6183638;23;20019;-90
2022/06/24 01:04:12;;;;;;;3.78;3.00;;;24.10;72.60;;;-144.05;37.43;125687.94;6183513;23;20399;-89
2022/06/24 01:06:43;;;;;;;3.45;2.83;;;24.00;71.70;;;-144.05;37.34;125687.94;6183689;23;20048;-88
2022/06/24 01:09:11;;;;;;;4.70;2.75;;;24.00;71.50;;;-144.05;37.13;125687.94;6182162;23;20013;-87
2022/06/24 01:11:45;;;;;;;6.13;3.00;;;24.00;71.10;;;-144.05;37.17;125687.94;6129881;23;20016;-89
2022/06/24 01:14:12;;;;;;;4.07;2.95;;;24.10;71.20;;;-144.05;38.50;125687.94;6129922;23;20005;-89
2022/06/24 01:16:39;;;;;;;5.40;3.25;;;24.20;74.00;;;-144.05;39.98;125687.94;6129079;23;20006;-86
2022/06/24 01:19:10;;;;;;;8.90;3.15;;;24.30;77.60;;;-144.05;42.42;125687.94;6129392;23;20014;-88
2022/06/24 01:21:43;;;;;;;12.18;4.00;;;24.20;84.40;;;-144.05;45.62;125687.94;6129463;23;20013;-87
2022/06/24 01:24:17;;;;;;;9.18;3.55;;;24.20;97.20;;;-144.05;48.68;125687.94;6129866;23;20009;-87
2022/06/24 01:26:50;;;;;;;9.45;3.40;;;24.00;99.90;;;-144.05;50.34;125687.94;6130656;23;20033;-90
2022/06/24 01:29:18;;;;;;;8.40;3.33;;;23.80;99.90;;;-144.05;51.74;125687.94;6130738;23;20009;-89
2022/06/24 01:31:48;;;;;;;10.73;3.50;;;23.50;99.90;;;-144.05;53.10;125687.94;6130491;23;20020;-88
2022/06/24 01:34:18;;;;;;;14.65;4.05;;;23.40;99.90;;;-144.05;54.10;125687.94;6131248;23;20365;-91
2022/06/24 01:36:44;;;;;;;6.72;3.38;;;23.20;99.90;;;-144.05;55.13;125687.94;6131444;23;20010;-89
2022/06/24 01:39:11;;;;;;;9.13;3.42;;;23.10;99.90;;;-144.05;55.64;125687.94;6131599;23;20016;-90
2022/06/24 01:41:38;;;;;;;7.97;3.63;;;22.90;99.90;;;-144.05;56.02;125687.94;6131424;23;20013;-89
2022/06/24 01:44:06;;;;;;;8.88;4.07;;;22.80;99.90;;;-144.05;56.96;125687.94;6133308;23;20015;-87
2022/06/24 01:46:32;;;;;;;7.72;3.40;;;22.70;99.90;;;-144.05;57.29;125687.94;6179369;23;20009;-82
2022/06/24 01:48:58;;;;;;;6.85;3.55;;;22.60;99.90;;;-144.05;57.56;125687.94;6142586;23;20044;-89
2022/06/24 01:51:27;;;;;;;9.75;3.55;;;22.60;99.90;;;-144.05;57.08;125687.94;6130028;23;20016;-91
2022/06/24 01:53:55;;;;;;;8.40;2.90;;;22.50;99.90;;;-144.05;56.87;125687.94;6156939;23;20097;-86
2022/06/24 01:56:21;;;;;;;13.73;3.30;;;22.50;99.90;;;-144.05;56.58;125687.94;6130350;23;20009;-88
2022/06/24 01:58:48;;;;;;;6.85;3.20;;;22.40;99.90;;;-144.05;57.27;125687.94;6131202;23;20093;-90
2022/06/24 02:01:14;;;;;;;9.65;3.03;;;22.40;99.90;;;-144.05;57.34;125687.94;6155266;23;20097;-88
2022/06/24 02:03:44;;;;;;;6.72;2.45;;;22.30;99.90;;;-144.05;57.47;125687.94;6158116;23;19997;-89
2022/06/24 02:06:12;;;;;;;7.13;3.13;;;22.30;99.90;;;-144.05;57.70;125687.94;6131708;23;20016;-85
2022/06/24 02:08:40;;;;;;;8.88;2.88;;;22.20;99.90;;;-144.05;57.55;125687.94;6132332;23;20420;-88
2022/06/24 02:13:57;;;;;;;8.18;2.53;;;22.20;99.90;;;-144.05;58.65;125687.94;6189599;23;20063;-86
2022/06/24 02:16:25;;;;;;;7.72;3.00;;;22.20;99.90;;;-144.05;58.49;125687.94;6187701;23;20005;-87
2022/06/24 02:18:53;;;;;;;8.68;3.20;;;22.10;99.90;;;-144.05;58.71;125687.94;6186911;23;20005;-89
2022/06/24 02:21:23;;;;;;;7.25;2.58;;;22.10;99.90;;;-144.05;58.97;125687.94;6210664;23;20016;-88
2022/06/24 02:23:50;;;;;;;5.75;2.75;;;22.10;99.90;;;-144.05;59.36;125687.94;6186521;23;20013;-87
2022/06/24 02:26:16;;;;;;;5.97;3.25;;;21.50;99.90;;;-144.05;59.90;125687.94;6184892;23;20454;-89
2022/06/24 02:28:42;;;;;;;3.72;2.72;;;22.00;99.90;;;-144.05;60.79;125687.94;6184922;23;20201;-89
2022/06/24 02:31:10;;;;;;;8.68;3.20;;;21.90;99.90;;;-144.05;60.52;125687.94;6185955;23;20009;-90
2022/06/24 02:33:37;;;;;;;5.97;3.50;;;21.90;99.90;;;-144.05;60.90;125687.94;6186435;23;20009;-91
2022/06/24 02:36:07;;;;;;;5.80;3.08;;;21.90;99.90;;;-144.05;61.52;125687.94;6186982;23;20432;-88
2022/06/24 02:38:34;;;;;;;10.32;2.70;;;21.80;99.90;;;-144.05;62.07;125687.94;6188018;23;20001;-88
2022/06/24 02:41:01;;;;;;;8.27;2.70;;;21.70;99.90;;;-144.05;62.43;125687.94;6188251;23;20004;-88
2022/06/24 02:43:37;;;;;;;11.10;3.35;;;21.70;99.90;;;-144.05;62.99;125687.94;6185988;23;20336;-88
2022/06/24 02:46:11;;;;;;;6.57;2.78;;;21.60;99.90;;;-144.05;62.26;125687.94;6185658;23;20310;-90
2022/06/24 02:48:42;;;;;;;5.00;2.42;;;20.70;99.90;;;-144.05;61.99;125687.94;6185472;23;20066;-90
2022/06/24 02:51:12;;;;;;;5.38;2.75;;;21.60;99.90;;;-144.05;62.74;125687.94;6186017;23;20092;-90
2022/06/24 02:53:39;;;;;;;7.65;2.40;;;21.50;99.90;;;-144.05;63.04;125687.94;6186225;23;20008;-90
2022/06/24 02:56:10;;;;;;;9.15;3.05;;;21.50;99.90;;;-144.05;63.38;125687.94;6185518;23;20019;-88
2022/06/24 02:58:39;;;;;;;5.18;2.40;;;21.50;99.90;;;-144.05;63.79;125687.94;6185991;23;20009;-87
2022/06/24 03:01:06;;;;;;;8.82;3.17;;;21.50;99.90;;;-144.05;64.65;125687.94;6185982;23;20009;-86
2022/06/24 03:03:34;;;;;;;6.85;3.47;;;21.50;99.90;;;-144.05;65.05;125687.94;6186562;23;20093;-89
2022/06/24 03:06:03;;;;;;;13.60;3.70;;;21.60;99.90;;;-144.05;65.53;125687.94;6187815;23;20006;-91
2022/06/24 03:08:30;;;;;;;7.28;3.55;;;21.50;99.90;;;-144.05;64.99;125687.94;6186405;23;20109;-91
2022/06/24 03:10:57;;;;;;;9.85;3.65;;;21.50;99.90;;;-144.05;65.42;125687.94;6163614;23;20016;-87
2022/06/24 03:13:28;;;;;;;7.18;3.63;;;21.50;99.90;;;-144.05;66.99;125687.94;6158928;23;20010;-90
2022/06/24 03:15:54;;;;;;;8.57;4.00;;;21.40;99.90;;;-144.05;68.24;125687.94;6133411;23;20048;-88
2022/06/24 03:18:23;;;;;;;8.85;4.57;;;21.30;99.90;;;-144.05;68.74;125687.94;6133367;23;20012;-86
2022/06/24 03:20:49;;;;;;;9.40;3.95;;;21.30;99.90;;;-144.05;69.03;125687.94;6131895;23;20021;-88
2022/06/24 03:23:19;;;;;;;7.97;4.20;;;21.30;99.90;;;-144.05;69.28;125687.94;6157059;23;20013;-91
2022/06/24 03:25:45;;;;;;;12.93;5.25;;;21.30;99.90;;;-144.05;72.31;125687.94;6133236;23;20005;-89
2022/06/24 03:28:12;;;;;;;9.52;5.32;;;21.20;99.90;;;-144.05;75.31;125687.94;6134012;23;20101;-91
2022/06/24 03:30:45;;;;;;;8.43;5.85;;;21.00;99.90;;;-144.05;77.23;125687.94;6133410;23;20014;-87
2022/06/24 03:33:36;;;;;;;13.27;6.80;;;20.80;99.90;;;-144.05;79.18;125687.94;6132670;23;20013;-86
2022/06/24 03:36:10;;;;;;;10.52;6.68;;;20.60;99.90;;;-144.05;79.93;125687.94;6142862;23;20350;-88
2022/06/24 03:38:36;;;;;;;11.45;6.90;;;20.50;99.90;;;-144.05;81.71;125687.94;6188211;23;20019;-87
2022/06/24 03:41:01;;;;;;;13.93;8.00;;;20.30;99.90;;;-144.05;82.84;125687.94;6189580;23;20084;-85
2022/06/24 03:43:27;;;;;;;16.23;8.13;;;20.10;99.90;;;-144.05;84.26;125687.94;6187642;23;20009;-86
2022/06/24 03:46:02;;;;;;;13.50;7.28;;;20.10;99.90;;;-144.05;85.49;125687.94;6182432;23;20005;-86
2022/06/24 03:48:29;;;;;;;12.43;7.82;;;20.00;99.90;;;-144.05;85.28;125687.94;6176317;23;20019;-87
2022/06/24 03:50:56;;;;;;;14.48;7.55;;;19.90;99.90;;;-144.05;85.11;125687.94;6172208;23;20016;-87
2022/06/24 03:53:23;;;;;;;11.80;6.28;;;19.90;99.90;;;-144.05;84.72;125687.94;6184160;23;20047;-89
2022/06/24 03:55:51;;;;;;;10.68;6.72;;;19.90;99.90;;;-144.05;85.34;125687.94;6160901;23;20002;-87
2022/06/24 03:58:20;;;;;;;11.65;6.82;;;19.80;99.90;;;-144.05;85.47;125687.94;6185462;23;20040;-89
2022/06/24 04:00:46;;;;;;;14.32;8.80;;;19.80;99.90;;;-144.05;87.81;125687.94;6160308;23;20006;-88
2022/06/24 04:03:12;;;;;;;21.30;9.63;;;19.80;99.90;;;-144.05;87.38;125687.94;6196346;23;20024;-84
2022/06/24 04:05:38;;;;;;;11.20;8.57;;;19.80;99.90;;;-144.05;87.00;125687.94;6170313;23;20383;-85
2022/06/24 04:08:05;;;;;;;16.33;11.23;;;19.80;99.90;;;-144.05;87.53;125687.94;6159840;23;20001;-86
2022/06/24 04:10:31;;;;;;;16.52;10.65;;;19.80;99.90;;;-144.05;87.88;125687.94;6185221;23;20088;-85
2022/06/24 04:12:57;;;;;;;16.83;12.77;;;19.70;99.90;;;-144.05;88.65;125687.94;6183175;23;20017;-87
2022/06/24 04:15:23;;;;;;;14.85;11.65;;;19.70;99.90;;;-144.05;88.93;125687.94;6158341;23;20378;-89
2022/06/24 04:17:50;;;;;;;14.30;11.32;;;19.70;99.90;;;-144.05;89.23;125687.94;6157241;23;20001;-86
2022/06/24 04:20:19;;;;;;;15.38;10.82;;;19.70;99.90;;;-144.05;88.35;125687.94;6159327;23;20037;-86
2022/06/24 04:22:45;;;;;;;18.92;11.70;;;19.70;99.90;;;-144.05;88.35;125687.94;6157172;23;20037;-88
2022/06/24 04:25:12;;;;;;;15.80;10.13;;;19.70;99.90;;;-144.05;88.61;125687.94;6183653;23;20006;-85
2022/06/24 04:27:39;;;;;;;16.67;10.88;;;19.80;99.90;;;-144.05;88.66;125687.94;6159204;23;20017;-86
2022/06/24 04:30:10;;;;;;;13.63;9.32;;;19.80;99.90;;;-144.05;88.20;125687.94;6159900;23;20009;-87
2022/06/24 04:32:37;;;;;;;15.98;9.85;;;19.80;99.90;;;-144.05;88.18;125687.94;6159595;23;20029;-85
2022/06/24 04:35:06;;;;;;;19.40;9.88;;;19.80;99.90;;;-144.05;88.31;125687.94;6159735;23;20006;-86
2022/06/24 04:37:35;;;;;;;13.98;10.10;;;19.80;99.90;;;-144.05;88.10;125687.94;6159247;23;20040;-87
2022/06/24 04:40:02;;;;;;;14.40;8.80;;;19.80;99.90;;;-144.05;88.07;125687.94;6157417;23;20006;-88
2022/06/24 04:42:28;;;;;;;12.18;9.05;;;19.80;99.90;;;-144.05;88.03;125687.94;6158597;23;20012;-84
2022/06/24 04:44:54;;;;;;;12.10;8.60;;;19.80;99.90;;;-144.05;87.99;125687.94;6159085;23;20006;-86
2022/06/24 04:47:22;;;;;;;14.25;10.95;;;19.80;99.90;;;-144.05;88.03;125687.94;6181964;23;20107;-88
2022/06/24 04:49:48;;;;;;;11.95;9.07;;;19.90;99.90;;;-144.05;88.21;125687.94;6156789;23;20040;-85
2022/06/24 04:52:18;;;;;;;13.52;10.15;;;19.80;99.90;;;-144.05;89.51;125687.94;6156201;23;20014;-87
2022/06/24 04:54:44;;;;;;;12.60;9.18;;;19.90;99.90;;;-144.05;88.86;125687.94;6181542;23;20094;-86
2022/06/24 04:57:11;;;;;;;10.63;8.77;;;19.90;99.90;;;-144.05;88.72;125687.94;6156884;23;20392;-88
2022/06/24 04:59:37;;;;;;;14.70;9.60;;;19.90;99.90;;;-144.05;88.88;125687.94;6158368;23;20016;-87
2022/06/24 05:02:04;;;;;;;14.88;8.55;;;19.90;99.90;;;-144.05;88.91;125687.94;6157931;23;20012;-88
2022/06/24 05:04:33;;;;;;;11.07;8.13;;;19.90;99.90;;;-144.05;88.98;125687.94;6157765;23;20092;-88
2022/06/24 05:06:59;;;;;;;10.75;7.65;;;19.90;99.90;;;-144.05;89.63;125687.94;6161769;23;20048;-87
2022/06/24 05:09:25;;;;;;;11.13;7.25;;;19.80;99.90;;;-144.05;88.99;125687.94;6185577;23;20009;-85
2022/06/24 05:11:51;;;;;;;10.38;7.63;;;19.80;99.90;;;-144.05;88.83;125687.94;6159785;23;20486;-87
2022/06/24 05:14:18;;;;;;;11.07;8.02;;;19.70;99.90;;;-144.05;88.64;125687.94;6157975;23;20009;-88
2022/06/24 05:16:44;;;;;;;9.02;7.75;;;19.70;99.90;;;-144.05;88.35;125687.94;6158843;23;20013;-87
2022/06/24 05:19:11;;;;;;;8.90;7.68;;;19.60;99.90;;;-144.05;88.45;125687.94;6182793;23;20005;-86
2022/06/24 05:21:37;;;;;;;9.65;7.47;;;19.60;99.90;;;-144.05;88.25;125687.94;6159118;23;20009;-87
2022/06/24 05:24:04;;;;;;;10.18;7.20;;;19.60;99.90;;;-144.05;88.08;125687.94;6159309;23;20010;-86
2022/06/24 05:26:30;;;;;;;9.10;6.43;;;19.60;99.90;;;-144.05;88.12;125687.94;6159978;23;20009;-86
2022/06/24 05:28:56;;;;;;;10.02;6.97;;;19.60;99.90;;;-144.05;88.59;125687.94;6158736;23;20465;-88
2022/06/24 05:31:21;;;;;;;10.30;8.10;;;19.50;99.90;;;-144.05;89.43;125687.94;6158150;23;20020;-88
2022/06/24 05:33:47;;;;;;;11.73;7.40;;;19.50;99.90;;;-144.05;89.23;125687.94;6158315;23;20040;-86
2022/06/24 05:36:14;;;;;;;8.23;7.43;;;19.50;99.90;;;-144.05;90.00;125687.94;6157774;23;20009;-88
2022/06/24 05:38:40;;;;;;;14.00;8.20;;;19.50;99.90;;;-144.05;90.35;125687.94;6160201;23;20009;-86
2022/06/24 05:41:06;;;;;;;13.55;9.10;;;19.60;99.90;;;-144.05;90.97;125687.94;6184419;23;20009;-89
2022/06/24 05:43:32;;;;;;;9.77;7.40;;;19.60;99.90;;;-144.05;90.72;125687.94;6158746;23;20335;-85
2022/06/24 05:45:58;;;;;;;11.90;8.02;;;19.60;99.90;;;-144.05;91.21;125687.94;6159033;23;20037;-87
2022/06/24 05:48:24;;;;;;;12.40;7.80;;;19.60;99.90;;;-144.05;91.83;125687.94;6159227;23;20005;-87
2022/06/24 05:50:51;;;;;;;14.38;7.60;;;19.60;99.90;;;-144.05;90.88;125687.94;6159300;23;20016;-87
2022/06/24 05:56:02;;;;;;;9.50;5.88;;;19.60;99.90;;;-144.05;89.89;125687.94;6167880;23;20067;-89
2022/06/24 05:58:30;;;;;;;9.52;5.05;;;19.60;99.90;;;-144.05;89.65;125687.94;6160661;23;20009;-88
2022/06/24 06:00:57;;;;;;;10.75;5.25;;;19.50;99.90;;;-144.05;89.14;125687.94;6160705;23;20009;-85
2022/06/24 06:03:26;;;;;;;10.70;5.18;;;19.50;99.90;;;-144.05;89.14;125687.94;6162100;23;20013;-88
2022/06/24 06:05:52;;;;;;;6.72;4.10;;;19.40;99.90;;;-144.05;88.65;125687.94;6162158;23;20096;-88
2022/06/24 06:08:19;;;;;;;6.57;3.75;;;19.40;99.90;;;-144.05;87.97;125687.94;6163733;23;20009;-86
2022/06/24 06:10:45;;;;;;;6.70;3.63;;;19.40;99.90;;;-144.05;88.27;125687.94;6163321;23;20013;-85
2022/06/24 06:13:12;;;;;;;4.35;2.97;;;19.40;99.90;;;-144.05;86.80;125687.94;6160668;23;20056;-87
2022/06/24 06:15:41;;;;;;;8.25;3.05;;;19.40;99.90;;;-144.05;86.39;125687.94;6185824;23;20033;-87
2022/06/24 06:18:08;;;;;;;7.40;2.40;;;19.30;99.90;;;-144.05;85.13;125687.94;6161901;23;20371;-85
2022/06/24 06:20:35;;;;;;;8.90;2.90;;;19.20;99.90;;;-144.05;85.73;125687.94;6162600;23;20040;-87
2022/06/24 06:23:01;;;;;;;6.07;2.40;;;19.30;99.90;;;-144.05;85.03;125687.94;6162775;23;20103;-85
2022/06/24 06:25:27;;;;;;;8.10;2.97;;;19.30;99.90;;;-144.05;85.05;125687.94;6163666;23;20083;-84
2022/06/24 06:27:53;;;;;;;6.30;2.20;;;19.20;99.90;;;-144.05;85.06;125687.94;6162810;23;20009;-82
2022/06/24 06:30:19;;;;;;;5.03;2.10;;;19.20;99.90;;;-144.05;84.46;125687.94;6162302;23;20359;-87
2022/06/24 06:32:45;;;;;;;4.07;1.88;;;19.10;99.90;;;-144.05;85.49;125687.94;6161396;23;20009;-87
2022/06/24 06:35:10;;;;;;;6.68;2.40;;;19.10;99.90;;;-144.05;85.10;125687.94;6162679;23;20025;-86
2022/06/24 06:37:37;;;;;;;4.45;1.98;;;19.10;99.90;;;-144.05;84.63;125687.94;6160772;23;20379;-85
2022/06/24 06:40:04;;;;;;;5.60;2.50;;;19.10;99.90;;;-144.05;85.69;125687.94;6160240;23;20009;-85
2022/06/24 06:42:30;;;;;;;5.32;2.20;;;19.10;99.90;;;-144.05;85.59;125687.94;6160209;23;20044;-84
2022/06/24 06:44:57;;;;;;;4.35;2.10;;;19.10;99.90;;;-144.05;84.81;125687.94;6160782;23;20013;-85
2022/06/24 06:47:23;;;;;;;5.53;2.28;;;19.20;99.90;;;-144.05;84.11;125687.94;6161985;23;20093;-85
2022/06/24 06:49:49;;;;;;;6.70;2.25;;;19.30;99.90;;;-144.05;83.04;125687.94;6185958;23;20010;-86
2022/06/24 06:52:15;;;;;;;5.18;2.40;;;19.40;99.90;;;-144.05;82.95;125687.94;6185774;23;20395;-85
2022/06/24 06:54:41;;;;;;;5.88;2.33;;;19.60;99.90;;;-144.05;83.02;125687.94;6161652;23;20017;-88
2022/06/24 06:57:08;;;;;;;5.30;2.50;;;19.90;99.90;;;-144.05;81.42;125687.94;6163046;23;20033;-86
2022/06/24 06:59:34;;;;;;;8.38;2.67;;;20.00;99.90;;;-144.05;80.40;125687.94;6162420;23;20017;-85
2022/06/24 07:02:00;;;;;;;4.47;2.35;;;20.10;99.90;;;-144.05;79.45;125687.94;6161026;23;20097;-85
2022/06/24 07:04:26;;;;;;;7.57;2.03;;;20.20;99.90;;;-144.05;79.00;125687.94;6161006;23;20036;-84
2022/06/24 07:06:53;;;;;;;9.43;2.00;;;20.30;99.90;;;-144.05;77.46;125687.94;6161167;23;20013;-86
2022/06/24 07:09:20;;;;;;;6.88;2.35;;;20.40;99.90;;;-144.05;78.18;125687.94;6162183;23;20013;-89
2022/06/24 07:11:46;;;;;;;8.50;2.20;;;20.30;99.90;;;-144.05;77.48;125687.94;6162743;23;20036;-86
2022/06/24 07:14:13;;;;;;;5.13;2.58;;;20.40;99.90;;;-144.05;77.87;125687.94;6187604;23;20005;-88
2022/06/24 07:16:39;;;;;;;6.35;2.13;;;20.50;99.90;;;-144.05;78.24;125687.94;6163430;23;20012;-87
2022/06/24 07:19:05;;;;;;;5.18;1.92;;;20.60;99.90;;;-144.05;77.69;125687.94;6191516;23;20112;-87
2022/06/24 07:21:32;;;;;;;5.05;1.90;;;20.70;99.90;;;-144.05;75.90;125687.94;6173068;23;20013;-85
2022/06/24 07:23:58;;;;;;;4.38;2.22;;;20.90;99.90;;;-144.05;75.03;125687.94;6179134;23;20021;-86
2022/06/24 07:26:24;;;;;;;3.92;1.67;;;20.90;99.90;;;-144.05;75.13;125687.94;6165085;23;20002;-86
2022/06/24 07:28:51;;;;;;;6.28;2.10;;;21.10;99.90;;;-144.05;75.10;125687.94;6186945;23;20016;-88
2022/06/24 07:31:20;;;;;;;2.70;1.70;;;21.10;99.90;;;-144.05;74.28;125687.94;6163080;23;20013;-87
2022/06/24 07:33:47;;;;;;;5.10;1.65;;;21.20;99.90;;;-144.05;73.82;125687.94;6161526;23;20010;-88
2022/06/24 07:36:13;;;;;;;5.88;1.75;;;21.30;99.90;;;-144.05;72.61;125687.94;6156798;23;20170;-89
2022/06/24 07:38:39;;;;;;;5.95;2.08;;;21.40;99.90;;;-144.05;72.18;125687.94;6131580;23;20010;-87
2022/06/24 07:41:07;;;;;;;6.93;1.60;;;21.40;99.90;;;-144.05;72.02;125687.94;6140635;23;20022;-87
2022/06/24 07:43:39;;;;;;;2.92;1.63;;;21.40;99.90;;;-144.05;72.59;125687.94;6168577;23;20051;-87
2022/06/24 07:46:08;;;;;;;4.95;1.63;;;21.50;99.90;;;-144.05;73.05;125687.94;6144864;23;20062;-87
2022/06/24 07:48:35;;;;;;;6.38;1.95;;;21.50;99.90;;;-144.05;70.73;125687.94;6148434;23;20021;-87
2022/06/24 07:51:16;;;;;;;2.15;1.30;;;21.60;99.90;;;-144.05;71.42;125687.94;6138836;23;20073;-87
2022/06/24 07:53:44;;;;;;;5.15;1.75;;;21.60;99.90;;;-144.05;70.05;125687.94;6133281;23;20444;-86
2022/06/24 07:58:55;;;;;;;4.57;1.50;;;21.60;99.90;;;-144.05;69.42;125687.94;6135082;23;20044;-87
2022/06/24 08:01:21;;;;;;;4.13;1.83;;;21.70;99.90;;;-144.05;69.87;125687.94;6134297;23;20038;-88
2022/06/24 08:03:48;;;;;;;5.15;1.52;;;21.90;99.90;;;-144.05;67.64;125687.94;6159544;23;20010;-86
2022/06/24 08:06:18;;;;;;;3.83;1.50;;;22.10;99.90;;;-144.05;67.40;125687.94;6137742;23;20010;-87
2022/06/24 08:08:44;;;;;;;5.63;1.88;;;22.30;99.90;;;-144.05;64.33;125687.94;6134845;23;20030;-87
2022/06/24 08:11:10;;;;;;;4.28;1.63;;;22.60;99.90;;;-144.05;64.60;125687.94;6130310;23;20016;-87
2022/06/24 08:13:38;;;;;;;3.83;1.88;;;22.70;99.90;;;-144.05;64.47;125687.94;6132918;23;20097;-84
2022/06/24 08:16:04;;;;;;;9.27;1.98;;;22.50;99.90;;;-144.05;65.06;125687.94;6131310;23;20412;-87
2022/06/24 08:18:30;;;;;;;4.90;1.73;;;22.60;99.90;;;-144.05;64.95;125687.94;6135487;23;20088;-89
2022/06/24 08:20:56;;;;;;;6.78;1.70;;;22.70;99.90;;;-144.05;63.83;125687.94;6135397;23;20014;-88
2022/06/24 08:23:22;;;;;;;5.60;2.20;;;22.70;99.90;;;-144.05;64.91;125687.94;6133824;23;20016;-86
2022/06/24 08:25:48;;;;;;;4.88;1.65;;;22.60;99.90;;;-144.05;64.29;125687.94;6133208;23;20013;-88
2022/06/24 08:28:14;;;;;;;5.50;1.80;;;22.70;99.90;;;-144.05;63.11;125687.94;6134875;23;20013;-88
2022/06/24 08:30:40;;;;;;;8.48;1.98;;;22.90;99.90;;;-144.05;63.64;125687.94;6133244;23;20010;-86
2022/06/24 08:33:06;;;;;;;5.88;1.65;;;23.10;99.90;;;-144.05;62.48;125687.94;6168035;23;20014;-84
2022/06/24 08:35:32;;;;;;;3.20;1.60;;;23.30;99.90;;;-144.05;61.96;125687.94;6158959;23;20459;-86
2022/06/24 08:37:59;;;;;;;4.18;1.77;;;23.30;99.90;;;-144.05;62.87;125687.94;6191573;23;20100;-87
2022/06/24 08:40:27;;;;;;;4.93;1.83;;;23.20;99.90;;;-144.05;62.75;125687.94;6190614;23;20020;-87
2022/06/24 08:43:01;;;;;;;5.38;2.00;;;23.20;99.90;;;-144.05;63.47;125687.94;6163137;23;20009;-87
2022/06/24 08:45:28;;;;;;;4.88;1.90;;;23.20;99.90;;;-144.05;61.48;125687.94;6187921;23;20350;-89
2022/06/24 08:47:55;;;;;;;5.15;1.60;;;23.30;99.90;;;-144.05;60.89;125687.94;6162595;23;20035;-86
2022/06/24 08:50:22;;;;;;;8.57;1.90;;;23.40;99.90;;;-144.05;61.92;125687.94;6191738;23;20105;-88
2022/06/24 08:53:10;;;;;;;3.67;1.77;;;23.40;99.90;;;-144.05;60.92;125687.94;6163617;23;20058;-85
2022/06/24 08:55:40;;;;;;;7.10;2.40;;;23.70;99.90;;;-144.05;58.27;125687.94;6162915;23;20036;-88
2022/06/24 08:58:09;;;;;;;5.80;2.08;;;24.10;99.90;;;-144.05;59.05;125687.94;6163432;23;20008;-85
2022/06/24 09:00:37;;;;;;;4.18;1.80;;;24.30;99.90;;;-144.05;57.59;125687.94;6164845;23;20450;-86
2022/06/24 09:03:05;;;;;;;7.05;2.65;;;24.30;99.90;;;-144.05;59.19;125687.94;6164403;23;20059;-87
2022/06/24 09:05:33;;;;;;;5.15;1.45;;;24.00;99.90;;;-144.05;59.39;125687.94;6165107;23;20016;-86
2022/06/24 09:08:11;;;;;;;5.05;2.17;;;23.90;99.90;;;-144.05;59.51;125687.94;6164682;23;20012;-88
2022/06/24 09:10:43;;;;;;;2.97;2.17;;;23.80;99.90;;;-144.05;60.97;125687.94;6164403;23;20005;-88
2022/06/24 09:13:21;;;;;;;5.72;2.47;;;23.50;99.90;;;-144.05;61.33;125687.94;6163413;23;20108;-90
2022/06/24 09:15:54;;;;;;;4.80;2.50;;;23.00;99.90;;;-144.05;63.40;125687.94;6163840;23;20015;-88
2022/06/24 09:18:24;;;;;;;5.18;3.13;;;22.50;99.90;;;-144.05;64.68;125687.94;6164515;23;20088;-87
2022/06/24 09:20:57;;;;;;;4.25;2.90;;;22.00;99.90;;;-144.05;66.12;125687.94;6164275;23;20012;-87
2022/06/24 09:23:24;;;;;;;5.47;2.53;;;21.60;99.90;;;-144.05;66.46;125687.94;6166287;23;20032;-88
2022/06/24 09:25:59;;;;;;;3.58;2.53;;;21.40;99.90;;;-144.05;67.18;125687.94;6211259;23;20021;-88
2022/06/24 09:28:29;;;;;;;3.63;2.42;;;21.30;99.90;;;-144.05;67.56;125687.94;6185495;23;20011;-86
2022/06/24 09:31:07;;;;;;;5.63;2.35;;;21.20;99.90;;;-144.05;68.75;125687.94;6185762;23;20017;-89
2022/06/24 09:33:47;;;;;;;4.53;3.00;;;21.10;99.90;;;-144.05;68.19;125687.94;6185385;23;20005;-88
2022/06/24 09:39:15;;;;;;;2.35;2.08;;;21.30;99.90;;;-144.05;66.42;125687.94;6220978;23;20027;-88
2022/06/24 09:41:54;;;;;;;3.77;2.27;;;21.70;99.90;;;-144.05;65.23;125687.94;6216221;23;20016;-86
2022/06/24 09:44:25;;;;;;;2.78;1.38;;;22.00;99.90;;;-144.05;63.67;125687.94;6221252;23;20235;-89
2022/06/24 09:47:05;;;;;;;2.10;1.60;;;22.10;99.90;;;-144.05;65.14;125687.94;6183481;23;20001;-90
2022/06/24 09:49:34;;;;;;;4.18;1.60;;;22.10;99.90;;;-144.05;66.54;125687.94;6167702;23;20013;-88
2022/06/24 09:52:02;;;;;;;8.25;2.25;;;21.90;99.90;;;-144.05;69.78;125687.94;6190347;23;20024;-90
2022/06/24 09:54:31;;;;;;;4.57;1.63;;;21.70;99.90;;;-144.05;70.58;125687.94;6175660;23;20009;-87
2022/06/24 09:57:03;;;;;;;3.70;1.55;;;21.30;99.90;;;-144.05;73.43;125687.94;6204960;23;20006;-86
2022/06/24 10:02:27;;;;;;;5.38;2.38;;;20.50;99.90;;;-144.05;77.24;125687.94;6188608;23;20019;-87
2022/06/24 10:05:03;;;;;;;7.15;2.20;;;20.30;99.90;;;-144.05;77.56;125687.94;6161621;23;20009;-88
2022/06/24 10:08:43;;;;;;;7.85;3.33;;;20.20;99.90;;;-144.05;80.96;125687.94;6186721;23;20056;-86
2022/06/24 10:12:11;;;;;;;9.77;5.55;;;19.90;99.90;;;-144.05;81.77;125687.94;6037092;23;20010;-88
2022/06/24 10:14:40;;;;;;;;;;;20.00;99.90;;;-144.05;80.14;125687.94;6085024;23;20094;-87
2022/06/24 10:18:26;;;;;;;;;;;;;;;;;;;;;
2022/06/24 10:28:27;;;;;;;10.32;5.15;;;20.50;99.90;;;-144.05;77.97;125687.94;6209544;23;20028;-86
2022/06/24 10:32:21;;;;;;;;;;;;;;;;;;;;;